El Paso, TX (88539)

5:56 AM MDT on July 24, 2017 (GMT -0600)
Manhattan | | Change Station

Elev 4550 ft 31.80 °N, 106.46 °W | Updated 4 seconds ago

Partly Cloudy
Partly Cloudy
72.7 °F
Feels Like 74 °F
N
7.3
Wind Variable Wind from NNE

Today
High -- | Low -- °F
--% Chance of Precip.
Yesterday
High -- | Low -- °F
Precip. -- in
Pressure 29.87 in
Visibility 10.0 miles
Clouds Few 12000 ft
Scattered Clouds 25000 ft
Heat Index 74 °F
Dew Point 64 °F
Humidity 74%
Rainfall 0.00 in
Snow Depth Not available.
6:16 AM 8:07 PM
New Moon, 2% visible
METAR KELP 241151Z 35009KT 10SM FEW120 SCT250 22/19 A3007 RMK AO2 SLP114 70013 T02170194 10222 20217 53002 $
Pressure 29.87 in
Visibility 10.0 miles
Clouds Few 12000 ft
Scattered Clouds 25000 ft
Heat Index 74 °F
Dew Point 64 °F
Humidity 74%
Rainfall 0.00 in
Snow Depth Not available.
6:16 AM 8:07 PM
New Moon, 2% visible
METAR KELP 241151Z 35009KT 10SM FEW120 SCT250 22/19 A3007 RMK AO2 SLP114 70013 T02170194 10222 20217 53002 $

Get Severe Weather Alerts

Thanks for signing up!

Be on the lookout for a verification email in your inbox.

You'll start receiving the daily forecast at 6 AM.

×

10-Day Weather Forecast

Almanac

Astronomy

Jul. 24, 2017 Rise Set
Actual Time
Civil Twilight
Nautical Twilight
Astronomical Twilight
Moon
Length of Visible Light
Length of Day
Tomorrow will be .
, % of the Moon is Illuminated

Today's Extremes

State Highs State Lows

Community

WunderPhotos

Category 6

Welcome to Category 6. This is the collective home for Weather Underground's featured writeups by Dr. Jeff Masters (right), Bob Henson (left), Chris Burt, and other regular contributors.

Nearby

Air Quality

  Air Quality AQ Index Pollutant
Not available.

Snow Depth

Station Depth Elevation

Earthquake Activity

City Distance Mag. Time & Date
Minimum magnitude displayed is 2.5.

Coastal Water Temperatures

Place Temperature

Stations

Nearby Weather Stations

Station Location Temp. Windchill Dew Point Humidity Wind Precip. Elev Updated Type
                   

Watches & Warnings

There are currently no watches in effect.